ESMS/MMX METAR and TAF weather

Enter ICAO airport designator
Station Type Date Time Source
ESMS METAR 2018/01/19 22:50 UTC NOAA

ESMS 192250Z 11002KT 9000 BKN020 00/00 Q1004 R17/29//95


Station Type Date Time Source
ESMS Decoded METAR 2018/01/19 22:50 UTC NOAA

Malmo / Sturup, Sweden (ESMS) 55-33N 013-22E
Jan 19, 2018 - 05:50 PM EST / 2018.01.19 2250 UTC
Wind: from the ESE (110 degrees) at 2 MPH (2 KT):0
Visibility: 5 mile(s):0
Sky conditions: mostly cloudy
Temperature: 32 F (0 C)
Dew Point: 32 F (0 C)
Relative Humidity: 100%
Pressure (altimeter): 29.65 in. Hg (1004 hPa)
ob: ESMS 192250Z 11002KT 9000 BKN020 00/00 Q1004 R17/29//95
cycle: 23

Station Type Date Time Source
ESMS TAF 2018/01/19 18:33 UTC NOAA

TAF ESMS 191715Z 1918/2018 VRB03KT 8000 SCT008 BKN015
TEMPO 1918/1920 BKN008
TEMPO 1920/2012 1200 SHSNRA BR BKN003 SCT015CB
TEMPO 2012/2018 2000 BR BKN004


Example: see airport list